Time;durP1;ratioP1;P1;durP2;ratioP2;P2;SDS_P1;SDS_P2;PMS_P1;PMS_P2;Temp;Humidity;BMP_temperature;BMP_pressure;BME280_temperature;BME280_humidity;BME280_pressure;Samples;Min_cycle;Max_cycle;Signal;HPM_P1;HPM_P2
2021/06/05 07:47:52;;;;;;;14.20;6.57;;;16.60;99.90;;;;;;12145294;27;20823;-75
2021/06/05 07:53:38;;;;;;;15.85;6.28;;;16.90;99.90;;;;;;12107282;28;20067;-77
2021/06/05 07:59:26;;;;;;;11.32;5.80;;;17.20;99.90;;;;;;12109009;27;20055;-74
2021/06/05 08:05:14;;;;;;;14.13;5.60;;;17.70;99.90;;;;;;12104589;27;20724;-73
2021/06/05 08:11:01;;;;;;;13.25;6.03;;;18.10;99.90;;;;;;12107408;27;20059;-74
2021/06/05 08:16:47;;;;;;;11.52;5.68;;;18.40;99.90;;;;;;12085291;28;20055;-74
2021/06/05 08:22:35;;;;;;;9.18;5.10;;;18.30;99.90;;;;;;12106590;27;20044;-75
2021/06/05 08:28:23;;;;;;;10.13;4.97;;;18.30;99.90;;;;;;12069718;28;20502;-74
2021/06/05 08:34:10;;;;;;;9.20;4.85;;;18.50;99.90;;;;;;12056468;27;20053;-75
2021/06/05 08:39:57;;;;;;;10.90;4.75;;;19.00;99.90;;;;;;12085410;27;20040;-75
2021/06/05 08:45:44;;;;;;;11.77;4.70;;;18.80;99.90;;;;;;12103772;27;20055;-75
2021/06/05 08:51:45;;;;;;;15.63;4.93;;;19.00;99.90;;;;;;12052244;27;20501;-74
2021/06/05 08:57:36;;;;;;;8.98;4.78;;;19.20;99.90;;;;;;12081755;28;20056;-74
2021/06/05 09:03:23;;;;;;;9.85;5.10;;;18.90;99.90;;;;;;12074630;28;20051;-73
2021/06/05 09:09:15;;;;;;;10.48;4.90;;;18.90;99.90;;;;;;12074578;28;20056;-73
2021/06/05 09:15:04;;;;;;;7.28;3.97;;;19.10;99.90;;;;;;12072628;27;20056;-75
2021/06/05 09:21:03;;;;;;;7.75;4.28;;;19.10;99.90;;;;;;12069817;28;20044;-74
2021/06/05 09:27:07;;;;;;;10.23;3.70;;;19.00;99.90;;;;;;12071687;28;20316;-75
2021/06/05 09:32:58;;;;;;;;;;;18.80;99.90;;;;;;12074010;28;20487;-75
2021/06/05 09:38:48;;;;;;;8.20;4.22;;;18.90;99.90;;;;;;12032878;28;19924;-75
2021/06/05 09:44:42;;;;;;;8.90;5.18;;;19.10;99.90;;;;;;12068913;27;20048;-74
2021/06/05 09:50:38;;;;;;;;;;;19.40;99.90;;;;;;12071790;28;20047;-74
2021/06/05 09:56:29;;;;;;;11.10;5.20;;;19.70;99.90;;;;;;12078817;28;19994;-73
2021/06/05 10:02:21;;;;;;;6.70;4.50;;;19.50;99.90;;;;;;12085328;28;20048;-75
2021/06/05 10:08:24;;;;;;;7.77;4.67;;;19.70;99.90;;;;;;12073147;28;20048;-75
2021/06/05 10:14:15;;;;;;;8.40;5.03;;;19.90;99.90;;;;;;12076204;28;20060;-75
2021/06/05 10:20:14;;;;;;;11.05;5.40;;;19.90;99.90;;;;;;12076338;28;20048;-75
2021/06/05 10:26:05;;;;;;;8.43;5.38;;;20.20;99.90;;;;;;12075297;28;20101;-75
2021/06/05 10:31:53;;;;;;;9.80;5.65;;;20.00;99.90;;;;;;12076743;28;20396;-75
2021/06/05 10:37:41;;;;;;;8.65;4.90;;;20.30;99.90;;;;;;12076407;28;20499;-75
2021/06/05 10:43:29;;;;;;;12.18;4.30;;;20.30;99.90;;;;;;12078296;28;20095;-75
2021/06/05 10:49:24;;;;;;;9.10;4.40;;;20.30;99.90;;;;;;12073680;28;20059;-75
2021/06/05 10:55:14;;;;;;;7.28;4.85;;;20.20;99.90;;;;;;12076084;28;20533;-74
2021/06/05 11:01:05;;;;;;;6.28;4.88;;;20.30;99.90;;;;;;12074728;28;20056;-75
2021/06/05 11:07:19;;;;;;;8.13;5.25;;;20.30;99.90;;;;;;12073538;28;20418;-75
2021/06/05 11:13:05;;;;;;;7.88;5.53;;;20.50;99.90;;;;;;12072116;28;20037;-77
2021/06/05 11:19:24;;;;;;;8.50;5.07;;;20.10;99.90;;;;;;12074366;28;20052;-75
2021/06/05 11:25:33;;;;;;;7.93;5.30;;;20.00;99.90;;;;;;12071150;28;20059;-74
2021/06/05 11:31:51;;;;;;;6.70;4.82;;;20.20;99.90;;;;;;12071300;28;20592;-75
2021/06/05 11:37:51;;;;;;;10.85;5.50;;;20.30;99.90;;;;;;12073316;28;20048;-75
2021/06/05 11:43:50;;;;;;;6.05;4.72;;;20.30;99.90;;;;;;12074466;28;20052;-76
2021/06/05 11:49:52;;;;;;;9.70;5.65;;;20.30;99.90;;;;;;12074300;28;20052;-76
2021/06/05 11:55:45;;;;;;;6.85;4.85;;;20.50;99.90;;;;;;12074933;28;20060;-74
2021/06/05 12:01:33;;;;;;;6.68;5.85;;;20.50;99.90;;;;;;12074279;28;20170;-76
2021/06/05 12:07:27;;;;;;;8.60;5.40;;;20.10;99.90;;;;;;12067322;28;20067;-75
2021/06/05 12:13:21;;;;;;;6.75;4.75;;;20.20;99.90;;;;;;12069466;28;20071;-75
2021/06/05 12:19:09;;;;;;;6.78;5.07;;;20.50;99.90;;;;;;12056938;28;20055;-76
2021/06/05 12:24:57;;;;;;;8.05;5.07;;;20.50;99.90;;;;;;12070535;28;20049;-75
2021/06/05 12:30:46;;;;;;;6.70;4.38;;;20.20;99.90;;;;;;12064855;28;20060;-75
2021/06/05 12:36:37;;;;;;;9.20;5.55;;;20.00;99.90;;;;;;12075135;28;20407;-75
2021/06/05 12:42:26;;;;;;;8.63;5.70;;;20.10;99.90;;;;;;12075709;28;20064;-74
2021/06/05 12:48:16;;;;;;;11.23;6.00;;;20.30;99.90;;;;;;12076211;28;20052;-76
2021/06/05 12:54:07;;;;;;;7.35;5.10;;;20.60;99.90;;;;;;12071384;28;20055;-76
2021/06/05 12:59:54;;;;;;;6.22;3.95;;;20.90;99.90;;;;;;12078595;28;20048;-75
2021/06/05 13:05:43;;;;;;;7.93;4.28;;;21.00;99.90;;;;;;12075168;28;20052;-75
2021/06/05 13:11:41;;;;;;;7.75;4.18;;;20.90;99.90;;;;;;12076517;28;20056;-76
2021/06/05 13:17:31;;;;;;;6.90;4.30;;;21.00;99.90;;;;;;12075603;28;20051;-75
2021/06/05 13:23:28;;;;;;;7.55;4.00;;;21.00;99.90;;;;;;12078508;28;20053;-76
2021/06/05 13:29:31;;;;;;;5.93;3.72;;;21.00;99.90;;;;;;12075897;28;20048;-76
2021/06/05 13:35:22;;;;;;;6.72;3.15;;;21.20;99.90;;;;;;12072883;28;20057;-75
2021/06/05 13:41:09;;;;;;;7.57;3.42;;;21.70;99.90;;;;;;12073688;28;20060;-76
2021/06/05 13:46:56;;;;;;;6.90;3.65;;;21.70;99.90;;;;;;12076241;28;20056;-76
2021/06/05 13:52:43;;;;;;;7.20;3.60;;;21.80;99.90;;;;;;12051913;27;20430;-77
2021/06/05 13:58:30;;;;;;;8.15;3.20;;;21.30;99.90;;;;;;12073179;28;20049;-76
2021/06/05 14:04:17;;;;;;;7.18;3.20;;;21.40;99.90;;;;;;12073893;28;20082;-77
2021/06/05 14:10:05;;;;;;;9.07;2.90;;;21.30;99.90;;;;;;12072469;28;20056;-76
2021/06/05 14:15:54;;;;;;;7.28;2.78;;;21.60;99.90;;;;;;12074467;28;20052;-76
2021/06/05 14:21:45;;;;;;;5.38;3.08;;;22.10;99.90;;;;;;12073676;28;20056;-77
2021/06/05 14:27:32;;;;;;;7.00;2.60;;;22.30;99.60;;;;;;12069782;28;20529;-76
2021/06/05 14:33:20;;;;;;;6.05;3.10;;;22.10;98.70;;;;;;12072872;28;20044;-75
2021/06/05 14:39:08;;;;;;;5.28;2.80;;;21.80;98.90;;;;;;12071499;28;20102;-76
2021/06/05 14:44:55;;;;;;;6.25;2.88;;;21.70;99.30;;;;;;12072353;28;20055;-76
2021/06/05 14:50:43;;;;;;;4.25;2.72;;;21.60;99.60;;;;;;12074747;28;20465;-76
2021/06/05 14:56:30;;;;;;;3.38;2.78;;;22.00;99.70;;;;;;12068216;28;20059;-76
2021/06/05 15:02:18;;;;;;;4.47;2.50;;;22.30;99.20;;;;;;12069711;28;20063;-75
2021/06/05 15:08:06;;;;;;;6.05;2.50;;;22.80;98.00;;;;;;12072486;28;20075;-74
2021/06/05 15:13:53;;;;;;;10.43;3.30;;;23.60;94.10;;;;;;12073008;28;20047;-77
2021/06/05 15:19:40;;;;;;;4.60;2.15;;;24.00;93.00;;;;;;12072478;28;20048;-78
2021/06/05 15:25:33;;;;;;;4.95;2.22;;;24.50;92.70;;;;;;12064546;28;20101;-79
2021/06/05 15:31:22;;;;;;;4.25;2.10;;;24.40;90.90;;;;;;12084701;28;20134;-79
2021/06/05 15:37:09;;;;;;;5.72;2.10;;;24.60;91.80;;;;;;12077110;28;20052;-80
2021/06/05 15:42:56;;;;;;;3.38;2.00;;;24.90;89.00;;;;;;12079738;28;20055;-80
2021/06/05 15:48:46;;;;;;;3.35;1.90;;;24.60;88.80;;;;;;12081196;28;20048;-82
2021/06/05 15:54:33;;;;;;;3.97;2.00;;;24.70;89.10;;;;;;12079725;28;20056;-81
2021/06/05 16:00:25;;;;;;;5.10;2.20;;;24.70;88.10;;;;;;12075283;28;20087;-81
2021/06/05 16:06:13;;;;;;;4.30;2.50;;;24.90;88.10;;;;;;12079061;28;20044;-80
2021/06/05 16:12:00;;;;;;;2.75;2.20;;;25.00;83.20;;;;;;12086487;28;20060;-81
2021/06/05 16:17:46;;;;;;;3.58;2.13;;;25.10;83.40;;;;;;12087583;28;20195;-79
2021/06/05 16:23:38;;;;;;;4.07;2.20;;;25.20;83.80;;;;;;12084000;28;20078;-81
2021/06/05 16:29:27;;;;;;;5.85;2.20;;;26.30;79.10;;;;;;12086672;28;20056;-79
2021/06/05 16:35:14;;;;;;;4.10;2.47;;;26.40;77.70;;;;;;12087001;28;20055;-79
2021/06/05 16:41:04;;;;;;;5.38;2.17;;;27.60;72.00;;;;;;12083352;28;20060;-78
2021/06/05 16:46:50;;;;;;;5.15;2.20;;;26.40;72.50;;;;;;12075456;28;20048;-74
2021/06/05 16:52:37;;;;;;;5.20;2.20;;;25.20;77.30;;;;;;12075791;28;20052;-76
2021/06/05 16:58:26;;;;;;;3.08;1.95;;;26.10;77.50;;;;;;12074537;28;20056;-74
2021/06/05 17:04:14;;;;;;;3.33;1.95;;;29.90;67.20;;;;;;12083855;28;20047;-79
2021/06/05 17:10:01;;;;;;;3.05;1.55;;;32.70;56.50;;;;;;12101346;28;20052;-78
2021/06/05 17:15:56;;;;;;;2.92;1.75;;;34.10;50.00;;;;;;12092386;28;20090;-79
2021/06/05 17:21:42;;;;;;;2.65;1.50;;;34.30;48.50;;;;;;12100317;28;20052;-77
2021/06/05 17:27:28;;;;;;;4.05;1.52;;;34.40;47.70;;;;;;12101053;28;20106;-76
2021/06/05 17:33:16;;;;;;;2.05;1.50;;;35.40;45.10;;;;;;12064464;28;20052;-76
2021/06/05 17:39:04;;;;;;;2.05;1.50;;;35.20;45.00;;;;;;12069607;28;20075;-75
2021/06/05 17:44:53;;;;;;;4.07;1.60;;;36.00;43.20;;;;;;12096765;28;20099;-76
2021/06/05 17:50:41;;;;;;;1.58;1.48;;;36.20;43.00;;;;;;12099646;28;20110;-76
2021/06/05 17:56:27;;;;;;;1.95;1.23;;;34.70;45.40;;;;;;12086064;28;20048;-76
2021/06/05 18:02:14;;;;;;;3.85;1.50;;;35.10;44.70;;;;;;12083877;28;20052;-79
2021/06/05 18:08:03;;;;;;;2.03;1.73;;;34.40;45.40;;;;;;12095219;28;20141;-79
2021/06/05 18:13:50;;;;;;;2.90;1.60;;;34.90;44.30;;;;;;12084545;28;20063;-79
2021/06/05 18:19:37;;;;;;;2.20;1.70;;;32.00;48.30;;;;;;12089607;28;20396;-81
2021/06/05 18:25:26;;;;;;;2.50;1.38;;;29.10;53.80;;;;;;12084413;28;20066;-79
2021/06/05 18:31:14;;;;;;;3.40;1.58;;;27.70;56.80;;;;;;12079567;28;20067;-79
2021/06/05 18:37:00;;;;;;;3.85;1.60;;;27.90;57.10;;;;;;12084718;28;20059;-78
2021/06/05 18:42:48;;;;;;;3.72;1.80;;;27.90;57.10;;;;;;12076447;28;20093;-77
2021/06/05 18:48:35;;;;;;;13.32;6.93;;;27.60;58.30;;;;;;12080731;28;20064;-78
2021/06/05 19:00:27;;;;;;;6.90;2.85;;;28.90;56.20;;;;;;12076766;28;20086;-78
2021/06/05 19:06:17;;;;;;;7.80;2.08;;;28.90;55.00;;;;;;12076827;28;20131;-77
2021/06/05 19:12:05;;;;;;;3.90;1.90;;;28.50;55.30;;;;;;12079550;28;20044;-77
2021/06/05 19:17:53;;;;;;;5.28;2.35;;;27.00;57.80;;;;;;12074533;28;20048;-77
2021/06/05 19:23:41;;;;;;;9.73;2.47;;;25.90;60.60;;;;;;12081556;28;20621;-78
2021/06/05 19:29:27;;;;;;;6.03;2.40;;;25.10;64.70;;;;;;12081107;28;20056;-78
2021/06/05 19:35:17;;;;;;;3.70;2.53;;;24.50;68.70;;;;;;12074713;28;20495;-76
2021/06/05 19:41:03;;;;;;;6.57;2.60;;;24.10;70.40;;;;;;12077082;28;20415;-76
2021/06/05 19:46:50;;;;;;;7.60;2.97;;;23.70;72.90;;;;;;12075919;28;20056;-77
2021/06/05 19:52:39;;;;;;;5.15;2.50;;;23.30;73.60;;;;;;12077103;28;20064;-78
2021/06/05 19:58:29;;;;;;;14.00;2.88;;;23.00;75.10;;;;;;12077763;28;20045;-77
2021/06/05 20:04:17;;;;;;;4.80;2.70;;;22.70;77.40;;;;;;12075208;28;20044;-77
2021/06/05 20:10:06;;;;;;;4.13;2.80;;;22.50;78.40;;;;;;12076947;28;20522;-78
2021/06/05 20:15:58;;;;;;;6.32;3.55;;;22.30;79.00;;;;;;12075813;28;20110;-76
2021/06/05 20:21:48;;;;;;;5.88;3.40;;;22.20;80.40;;;;;;12074914;28;20052;-77
2021/06/05 20:27:36;;;;;;;6.75;3.33;;;21.90;81.70;;;;;;12082522;28;20132;-82
2021/06/05 20:33:23;;;;;;;7.18;3.67;;;21.90;82.70;;;;;;12088197;28;20056;-83
2021/06/05 20:39:12;;;;;;;7.25;3.60;;;21.80;84.10;;;;;;12078072;28;20055;-82
2021/06/05 20:45:00;;;;;;;6.13;3.45;;;21.70;85.00;;;;;;12076703;28;20044;-82
2021/06/05 20:50:46;;;;;;;4.00;3.42;;;21.60;86.20;;;;;;12081192;28;20056;-77
2021/06/05 20:56:34;;;;;;;7.05;3.95;;;21.50;87.30;;;;;;12083592;28;20055;-78
2021/06/05 21:02:22;;;;;;;6.35;3.47;;;21.40;88.90;;;;;;12086503;28;20052;-77
2021/06/05 21:08:08;;;;;;;9.13;4.05;;;21.30;89.80;;;;;;12083788;28;20098;-76
2021/06/05 21:13:56;;;;;;;6.63;4.13;;;21.20;90.40;;;;;;12088201;28;20078;-76
2021/06/05 21:19:44;;;;;;;7.97;4.07;;;21.10;91.00;;;;;;12082561;28;20648;-76
2021/06/05 21:25:30;;;;;;;10.00;3.80;;;21.00;91.50;;;;;;12077029;28;20044;-76
2021/06/05 21:31:18;;;;;;;11.10;4.88;;;20.90;92.00;;;;;;12076851;27;20048;-76
2021/06/05 21:37:06;;;;;;;7.50;3.75;;;20.90;92.50;;;;;;12082381;28;20052;-78
2021/06/05 21:42:52;;;;;;;8.43;3.80;;;20.80;92.80;;;;;;12081189;28;20068;-78
2021/06/05 21:48:39;;;;;;;14.38;4.05;;;20.80;93.00;;;;;;12083464;28;20048;-78
2021/06/05 21:54:27;;;;;;;9.38;3.97;;;20.80;93.30;;;;;;12083646;28;20060;-78
2021/06/05 22:00:49;;;;;;;13.05;5.15;;;20.70;93.30;;;;;;12081490;28;20059;-78
2021/06/05 22:06:38;;;;;;;4.57;3.97;;;20.70;93.60;;;;;;12081658;28;20059;-78
2021/06/05 22:12:24;;;;;;;11.60;4.38;;;20.70;93.90;;;;;;12080119;28;20043;-77
2021/06/05 22:18:12;;;;;;;8.73;4.55;;;20.70;93.50;;;;;;12079621;28;20044;-78
2021/06/05 22:23:59;;;;;;;9.98;4.22;;;20.70;93.50;;;;;;12081418;28;20037;-78
2021/06/05 22:29:45;;;;;;;7.78;4.03;;;20.60;93.80;;;;;;12078355;28;20137;-77
2021/06/05 22:35:33;;;;;;;8.98;4.38;;;20.60;94.40;;;;;;12078870;28;20068;-78
2021/06/05 22:41:21;;;;;;;10.73;4.20;;;20.50;94.30;;;;;;12081668;28;20079;-78
2021/06/05 22:47:07;;;;;;;8.77;4.00;;;20.40;94.60;;;;;;12081188;28;20048;-79
2021/06/05 22:52:55;;;;;;;6.20;4.30;;;20.40;94.70;;;;;;12079941;28;20055;-79
2021/06/05 22:58:42;;;;;;;6.90;4.65;;;20.40;94.80;;;;;;12055182;28;20052;-79
2021/06/05 23:04:29;;;;;;;6.68;3.90;;;20.40;94.80;;;;;;12078141;28;20044;-79
2021/06/05 23:10:17;;;;;;;9.00;5.07;;;20.30;95.10;;;;;;12052862;28;20040;-79
2021/06/05 23:16:05;;;;;;;9.43;5.18;;;20.20;95.40;;;;;;12024896;28;20056;-79
2021/06/05 23:21:52;;;;;;;7.10;4.60;;;20.00;95.80;;;;;;12044669;28;20066;-79
2021/06/05 23:27:40;;;;;;;11.95;5.50;;;19.90;96.10;;;;;;12058813;28;20495;-79
2021/06/05 23:33:29;;;;;;;9.77;5.00;;;19.80;96.30;;;;;;12036949;28;20048;-79
2021/06/05 23:39:16;;;;;;;6.35;4.88;;;19.80;96.40;;;;;;12057461;28;20529;-79
2021/06/05 23:45:07;;;;;;;10.45;5.63;;;19.80;96.50;;;;;;12062928;28;20430;-79
2021/06/05 23:50:54;;;;;;;10.20;6.63;;;19.80;96.60;;;;;;12078014;28;20041;-79
2021/06/05 23:56:40;;;;;;;11.88;7.22;;;19.70;97.10;;;;;;12082443;28;20094;-79
